Data for 08/18/2010

Time Sea-Level Adjusted Pressure Absolute Pressure Temperature Relative Humidity Dew Point   
(mb) (inHg) (mb) (inHg) (C) (F) (%) (C) (F)
00:05 1017 30.03 847 25.01 22.4 72.4 28 3.2 37.7
00:10 1017 30.03 847 25.01 22.4 72.3 28 3.3 38
00:15 1017 30.03 847 25.01 22.4 72.3 28 3.3 37.9
00:20 1017 30.03 847 25.01 22.4 72.3 28 3.2 37.7
00:25 1017 30.03 847 25.01 22.4 72.4 28 3.3 37.9
00:30 1017 30.03 847 25.01 22.3 72.2 29 3.4 38.2
00:35 1018 30.06 847 25.01 22 71.6 30 3.8 38.9
00:40 1018 30.06 847 25.01 21.4 70.6 31 4 39.1
00:45 1018 30.06 847 25.01 20.9 69.7 31 3.4 38.2
00:50 1018 30.06 847 25.01 21 69.8 32 3.7 38.6
00:55 1018 30.06 847 25.01 21 69.8 31 3.3 38
01:00 1018 30.06 847 25.01 21.2 70.1 31 3.6 38.5
01:05 1018 30.06 847 25.01 20.8 69.4 32 3.8 38.9
01:10 1018 30.06 847 25.01 20.5 68.9 32 3.6 38.5
01:15 1017 30.03 847 25.01 20.7 69.2 32 3.5 38.3
01:20 1017 30.03 847 25.01 20.8 69.5 31 3.4 38
01:25 1017 30.03 847 25.01 21 69.8 31 3.4 38.2
01:30 1017 30.03 846 24.98 21 69.8 31 3.6 38.5
01:35 1017 30.03 846 24.98 20.9 69.6 31 3.5 38.3
01:40 1017 30.03 847 25.01 20.9 69.5 32 3.6 38.5
01:45 1017 30.03 847 25.01 20.7 69.3 32 3.6 38.5
01:50 1017 30.03 846 24.98 20.6 69 32 3.6 38.5
01:55 1017 30.03 846 24.98 20.5 68.9 32 3.6 38.5
02:00 1017 30.03 846 24.98 20.4 68.8 33 3.8 38.8
02:05 1017 30.03 846 24.98 20.3 68.5 33 3.6 38.5
02:10 1017 30.03 846 24.98 20.3 68.6 33 3.7 38.6
02:15 1017 30.03 847 25.01 20.3 68.6 34 3.9 39
02:20 1017 30.03 846 24.98 20.2 68.3 33 3.7 38.6
02:25 1017 30.03 847 25.01 20.2 68.4 33 3.8 38.8
02:30 1017 30.03 847 25.01 19.9 67.9 35 4.3 39.7
02:35 1017 30.03 847 25.01 19.2 66.5 37 4.3 39.7
02:40 1017 30.03 847 25.01 18 64.3 42 5.1 41.2
02:45 1017 30.03 847 25.01 17.1 62.9 43 4.6 40.3
02:50 1017 30.03 847 25.01 16.9 62.5 44 4.7 40.4
02:55 1017 30.03 847 25.01 16.9 62.3 45 4.9 40.7
03:00 1017 30.03 847 25.01 16.3 61.4 47 5.2 41.3
03:05 1017 30.03 847 25.01 16 60.7 48 5 41
03:10 1017 30.03 847 25.01 16 60.7 48 5 41.1
03:15 1018 30.06 847 25.01 16 60.8 45 4.2 39.6
03:20 1018 30.06 847 25.01 16.3 61.3 45 4.4 40
03:25 1018 30.06 847 25.01 16.4 61.5 43 3.8 38.8
03:30 1018 30.06 847 25.01 16.6 61.8 42 3.7 38.6
03:35 1018 30.06 847 25.01 16.6 61.9 42 3.7 38.6
03:40 1018 30.06 847 25.01 16.3 61.3 47 4.9 40.8
03:45 1018 30.06 847 25.01 16.2 61.2 48 5.2 41.4
03:50 1018 30.06 847 25.01 15.9 60.6 43 3.4 38.2
03:55 1018 30.06 847 25.01 15.9 60.5 44 3.7 38.6
04:00 1018 30.06 847 25.01 15.3 59.5 44 3.3 37.9
04:05 1018 30.06 847 25.01 14.9 58.8 47 3.7 38.7
04:10 1018 30.06 847 25.01 13.9 57 49 3.5 38.3
04:15 1017 30.03 847 25.01 13.5 56.4 48 3 37.3
04:20 1017 30.03 847 25.01 13.9 57 45 2.2 36
04:25 1018 30.06 847 25.01 14.6 58.2 43 2.1 35.8
04:30 1018 30.06 847 25.01 15 58.9 40 1.7 35.1
04:35 1018 30.06 847 25.01 15.3 59.5 41 2.1 35.8
04:40 1018 30.06 847 25.01 15 59 42 2.4 36.3
04:45 1018 30.06 847 25.01 14.7 58.4 43 2.4 36.4
04:50 1018 30.06 847 25.01 14.5 58.1 43 2.3 36.1
04:55 1018 30.06 847 25.01 14.5 58 41 1.6 34.9
05:00 1018 30.06 847 25.01 14.5 58 44 2.4 36.4
05:05 1018 30.06 847 25.01 14.5 58 44 2.4 36.3
05:10 1018 30.06 847 25.01 14.8 58.6 45 3.1 37.6
05:15 1018 30.06 847 25.01 14.9 58.7 46 3.5 38.2
05:20 1018 30.06 847 25.01 14.3 57.7 48 3.6 38.4
05:25 1018 30.06 847 25.01 14.3 57.7 46 3 37.4
05:30 1018 30.06 847 25.01 14.4 57.9 45 2.8 37
05:35 1018 30.06 847 25.01 14.6 58.2 46 3.2 37.7
05:40 1018 30.06 847 25.01 14.5 58.2 47 3.5 38.2
05:45 1018 30.06 847 25.01 14.6 58.2 47 3.5 38.4
05:50 1018 30.06 847 25.01 14.6 58.3 46 3.1 37.6
05:55 1018 30.06 847 25.01 14.6 58.2 47 3.6 38.4
06:00 1018 30.06 847 25.01 14.4 57.9 47 3.3 38
06:05 1018 30.06 847 25.01 14.7 58.4 48 3.7 38.7
06:10 1018 30.06 847 25.01 14.7 58.4 47 3.6 38.5
06:15 1018 30.06 847 25.01 14.7 58.5 47 3.6 38.5
06:20 1018 30.06 847 25.01 14.5 58.1 47 3.4 38.1
06:25 1018 30.06 847 25.01 14.7 58.5 48 3.8 38.8
06:30 1018 30.06 847 25.01 14.6 58.2 49 4.1 39.5
06:35 1018 30.06 847 25.01 14.2 57.6 51 4.2 39.6
06:40 1017 30.03 847 25.01 14.1 57.3 51 4.3 39.7
06:45 1017 30.03 847 25.01 14.4 58 49 4.1 39.3
06:50 1017 30.03 847 25.01 14.8 58.7 49 4.3 39.7
06:55 1017 30.03 847 25.01 14.6 58.4 49 4.2 39.6
07:00 1017 30.03 847 25.01 14.6 58.3 49 4 39.1
07:05 1017 30.03 847 25.01 14.7 58.4 48 3.9 39
07:10 1017 30.03 847 25.01 14.7 58.5 48 3.8 38.9
07:15 1017 30.03 847 25.01 14.9 58.8 47 3.8 38.9
07:20 1017 30.03 847 25.01 15.1 59.1 47 3.9 38.9
07:25 1017 30.03 846 24.98 15.1 59.2 47 3.9 39
07:30 1017 30.03 846 24.98 15.2 59.3 47 4.1 39.3
07:35 1017 30.03 846 24.98 15.4 59.7 47 4.2 39.6
07:40 1017 30.03 846 24.98 15.6 60 47 4.3 39.8
07:45 1017 30.03 846 24.98 15.6 60.1 48 4.7 40.4
07:50 1017 30.03 846 24.98 15.8 60.4 47 4.6 40.3
07:55 1017 30.03 846 24.98 16 60.8 46 4.6 40.2
08:00 1017 30.03 846 24.98 16.4 61.4 45 4.4 39.9
08:05 1017 30.03 846 24.98 16.8 62.2 45 4.8 40.6
08:10 1017 30.03 846 24.98 17.1 62.7 43 4.6 40.3
08:15 1017 30.03 846 24.98 17.2 63 43 4.6 40.2
08:20 1017 30.03 846 24.98 17.6 63.7 41 4.2 39.5
08:25 1017 30.03 846 24.98 17.9 64.2 41 4.5 40
08:30 1017 30.03 846 24.98 18.1 64.6 41 4.9 40.8
08:35 1017 30.03 846 24.98 18.4 65 41 4.9 40.8
08:40 1017 30.03 846 24.98 18.6 65.6 40 4.8 40.7
08:45 1017 30.03 846 24.98 19.2 66.5 39 5.2 41.4
08:50 1017 30.03 846 24.98 20 68.1 37 5.1 41.2
08:55 1017 30.03 846 24.98 20.5 68.9 37 5.3 41.5
09:00 1017 30.03 846 24.98 20.6 69 37 5.7 42.3
09:05 1017 30.03 846 24.98 20.4 68.6 41 6.7 44.1
09:10 1017 30.03 846 24.98 19.5 67 43 6.6 43.8
09:15 1017 30.03 846 24.98 19.5 67 43 6.6 43.8
09:20 1017 30.03 846 24.98 19.4 66.9 42 6.2 43.1
09:25 1017 30.03 846 24.98 19.8 67.6 41 6.3 43.3
09:30 1017 30.03 846 24.98 19.4 66.9 41 5.9 42.6
09:35 1017 30.03 846 24.98 19.5 67.1 40 5.9 42.5
09:40 1017 30.03 846 24.98 20 67.9 39 5.6 42.1
09:45 1017 30.03 846 24.98 20.1 68.1 38 5.3 41.6
09:50 1017 30.03 846 24.98 19.5 67.1 39 5.3 41.5
09:55 1017 30.03 846 24.98 20 67.9 37 5.2 41.3
10:00 1017 30.03 846 24.98 20.9 69.6 37 6 42.8
10:05 1017 30.03 846 24.98 21.1 70 38 6.5 43.7
10:10 1017 30.03 846 24.98 20.7 69.2 39 6.2 43.2
10:15 1017 30.03 846 24.98 21.5 70.6 35 5.6 42.1
10:20 1017 30.03 846 24.98 22.1 71.9 34 5.8 42.5
10:25 1017 30.03 846 24.98 22 71.7 35 6.1 43
10:30 1017 30.03 846 24.98 22.6 72.6 35 6.7 44
10:35 1017 30.03 846 24.98 22.3 72.2 34 5.9 42.7
10:40 1016 30 846 24.98 23 73.3 33 6.2 43.2
10:45 1016 30 846 24.98 22.6 72.7 34 6 42.7
10:50 1017 30.03 846 24.98 23 73.5 31 5.4 41.7
10:55 1016 30 846 24.98 22.7 72.8 32 5.2 41.3
11:00 1016 30 846 24.98 23.7 74.7 30 5.4 41.7
11:05 1016 30 846 24.98 24.7 76.5 28 5.4 41.7
11:10 1016 30 845 24.95 25.1 77.1 28 5.6 42
11:15 1016 30 845 24.95 25.1 77.2 30 6.7 44.1
11:20 1016 30 845 24.95 24.5 76.1 29 5.6 42.1
11:25 1016 30 845 24.95 24.1 75.5 29 5.2 41.4
11:30 1016 30 845 24.95 24.7 76.5 29 5.8 42.5
11:35 1016 30 845 24.95 24.8 76.6 30 6.2 43.2
11:40 1016 30 845 24.95 25.1 77.1 29 6 42.8
11:45 1016 30 845 24.95 25.1 77.1 31 7 44.6
11:50 1016 30 845 24.95 25.1 77.1 29 6.3 43.3
11:55 1016 30 845 24.95 25.4 77.7 30 6.9 44.4
12:00 1016 30 845 24.95 25.8 78.4 28 6.1 43.1
12:05 1016 30 845 24.95 26.2 79.2 27 6 42.9
12:10 1015 29.97 845 24.95 25.7 78.3 27 5.6 42.1
12:15 1015 29.97 845 24.95 26.4 79.5 25 5.2 41.3
12:20 1015 29.97 845 24.95 26.9 80.4 24 5 41
12:25 1015 29.97 844 24.92 27 80.5 23 4.5 40.1
12:30 1015 29.97 844 24.92 27 80.6 22 4 39.2
12:35 1015 29.97 844 24.92 27.4 81.4 22 4.3 39.8
12:40 1015 29.97 844 24.92 27.9 82.2 22 4.3 39.7
12:45 1015 29.97 844 24.92 27.6 81.6 23 4.8 40.7
12:50 1015 29.97 844 24.92 27.7 81.9 21 4 39.3
12:55 1015 29.97 844 24.92 27.7 81.8 21 3.5 38.2
13:00 1015 29.97 844 24.92 27.8 82.1 21 3.7 38.7
13:05 1015 29.97 844 24.92 28.4 83.2 22 4.8 40.6
13:10 1015 29.97 844 24.92 28.3 83 22 4.8 40.6
13:15 1015 29.97 844 24.92 28.7 83.6 20 4.1 39.3
13:20 1015 29.97 844 24.92 28.4 83.1 21 4.4 40
13:25 1015 29.97 844 24.92 28.6 83.4 22 4.8 40.7
13:30 1015 29.97 844 24.92 28.9 84.1 19 3.4 38.1
13:35 1015 29.97 844 24.92 29.4 85 18 3.3 37.9
13:40 1015 29.97 844 24.92 29.6 85.2 18 3 37.5
13:45 1015 29.97 844 24.92 29.4 84.9 19 4.1 39.3
13:50 1015 29.97 844 24.92 29.8 85.6 20 4.4 40
13:55 1014 29.94 844 24.92 29.4 84.9 19 3.5 38.2
14:00 1014 29.94 844 24.92 30 85.9 18 3.3 37.9
14:05 1014 29.94 844 24.92 30.8 87.5 18 3.8 38.9
14:10 1014 29.94 844 24.92 31 87.9 15 1.8 35.3
14:15 1014 29.94 844 24.92 30.8 87.4 15 1.4 34.5
14:20 1014 29.94 844 24.92 30.4 86.8 16 2.3 36.1
14:25 1014 29.94 844 24.92 31 87.9 16 2.3 36.2
14:30 1014 29.94 844 24.92 31.6 88.8 14 1.3 34.4
14:35 1014 29.94 844 24.92 31.3 88.3 14 1.1 33.9
14:40 1014 29.94 843 24.89 30.4 86.7 15 1.5 34.7
14:45 1014 29.94 843 24.89 31.1 88.1 14 1 33.8
14:50 1014 29.94 843 24.89 31 87.8 15 1.4 34.4
14:55 1014 29.94 843 24.89 31.3 88.3 14 0.9 33.5
15:00 1014 29.94 843 24.89 31.9 89.3 13 0.9 33.6
15:05 1014 29.94 843 24.89 31.5 88.7 14 1.4 34.6
15:10 1014 29.94 843 24.89 31.3 88.3 14 1.3 34.4
15:15 1014 29.94 843 24.89 31.4 88.5 14 1.3 34.3
15:20 1014 29.94 843 24.89 31.4 88.6 14 1.1 34
15:25 1014 29.94 843 24.89 32 89.5 15 2.1 35.7
15:30 1014 29.94 843 24.89 32.1 89.8 14 2 35.5
15:35 1014 29.94 843 24.89 31.5 88.7 14 1.2 34.2
15:40 1014 29.94 843 24.89 31.7 89.1 14 1.7 35.1
15:45 1014 29.94 843 24.89 32.3 90.1 14 1.4 34.4
15:50 1014 29.94 843 24.89 32.4 90.3 14 1.8 35.2
15:55 1014 29.94 843 24.89 32.4 90.4 14 2.2 36
16:00 1014 29.94 843 24.89 32.2 89.9 15 2.6 36.7
16:05 1014 29.94 843 24.89 32 89.6 15 2.6 36.7
16:10 1014 29.94 843 24.89 31.7 89 15 2.2 36
16:15 1014 29.94 843 24.89 31.5 88.7 14 1.5 34.7
16:20 1014 29.94 843 24.89 31.5 88.7 15 1.9 35.4
16:25 1014 29.94 843 24.89 31.1 88 15 1.4 34.5
16:30 1014 29.94 843 24.89 31.2 88.2 14 1.4 34.5
16:35 1014 29.94 843 24.89 31.5 88.8 14 0.9 33.6
16:40 1014 29.94 843 24.89 31.9 89.3 14 1.8 35.3
16:45 1014 29.94 843 24.89 31.5 88.7 15 1.7 35.1
16:50 1014 29.94 843 24.89 31.3 88.3 14 1.3 34.4
16:55 1014 29.94 843 24.89 31.6 88.9 14 0.9 33.6
17:00 1013 29.91 843 24.89 31.5 88.6 14 0.9 33.7
17:05 1013 29.91 843 24.89 31.9 89.4 14 1.4 34.5
17:10 1013 29.91 843 24.89 31.7 89.1 14 1.6 34.9
17:15 1013 29.91 843 24.89 31.9 89.3 14 1.6 34.9
17:20 1013 29.91 843 24.89 31.9 89.4 13 0.7 33.3
17:25 1013 29.91 843 24.89 31.1 88 15 1.5 34.6
17:30 1013 29.91 842 24.86 30.9 87.6 15 1.2 34.2
17:35 1013 29.91 842 24.86 30.6 87 14 0.3 32.6
17:40 1013 29.91 842 24.86 30.7 87.2 15 1.4 34.6
17:45 1013 29.91 842 24.86 30.6 87 14 0.5 32.8
17:50 1013 29.91 842 24.86 30.5 86.9 15 0.9 33.6
17:55 1013 29.91 842 24.86 29.8 85.6 15 0.9 33.6
18:00 1013 29.91 842 24.86 30.3 86.5 14 -0 31.9
18:05 1013 29.91 842 24.86 30.9 87.6 14 0.3 32.6
18:10 1013 29.91 842 24.86 30.8 87.4 14 0.3 32.5
18:15 1013 29.91 842 24.86 31 87.7 14 0.4 32.7
18:20 1013 29.91 842 24.86 31.2 88.2 13 0.3 32.6
18:25 1013 29.91 842 24.86 31.3 88.4 13 0.1 32.3
18:30 1013 29.91 842 24.86 30.7 87.3 15 1.2 34.2
18:35 1013 29.91 842 24.86 30.4 86.7 14 0.3 32.5
18:40 1013 29.91 842 24.86 30.7 87.3 13 -0.3 31.5
18:45 1013 29.91 842 24.86 31.1 88.1 14 0.4 32.7
18:50 1013 29.91 842 24.86 30.7 87.2 15 1.5 34.7
18:55 1013 29.91 842 24.86 30.2 86.3 14 0.3 32.5
19:00 1013 29.91 842 24.86 30 85.9 15 0.6 33
19:05 1013 29.91 842 24.86 29.6 85.3 14 -0.2 31.6
19:10 1013 29.91 842 24.86 29.1 84.4 15 0.5 33
19:15 1013 29.91 842 24.86 28.5 83.4 17 1.8 35.2
19:20 1013 29.91 842 24.86 28.2 82.7 15 -0.5 31.1
19:25 1013 29.91 842 24.86 27.9 82.2 17 0.8 33.4
19:30 1013 29.91 842 24.86 27.7 81.9 17 0.9 33.7
19:35 1013 29.91 842 24.86 27.3 81.2 17 0.6 33.2
19:40 1013 29.91 842 24.86 26.8 80.2 18 0.7 33.2
19:45 1013 29.91 842 24.86 26.1 79 19 1.1 33.9
19:50 1013 29.91 842 24.86 25.8 78.4 20 1.1 34
19:55 1013 29.91 842 24.86 25.6 78 20 1.3 34.3
20:00 1013 29.91 842 24.86 25.6 78.1 21 2.2 35.9
20:05 1013 29.91 843 24.89 25.7 78.2 21 2.2 36
20:10 1013 29.91 843 24.89 25.8 78.4 22 2.4 36.4
20:15 1014 29.94 843 24.89 25.5 77.8 22 2.5 36.5
20:20 1014 29.94 843 24.89 24.9 76.8 23 2.5 36.5
20:25 1014 29.94 843 24.89 24.5 76 24 2.7 36.8
20:30 1014 29.94 843 24.89 24.2 75.5 24 2.7 36.8
20:35 1014 29.94 843 24.89 24.1 75.5 25 3.1 37.6
20:40 1014 29.94 843 24.89 24.1 75.5 25 3.3 38
20:45 1014 29.94 843 24.89 23.5 74.3 27 3.7 38.7
20:50 1014 29.94 843 24.89 22.8 73 28 3.3 37.9
20:55 1014 29.94 843 24.89 22.6 72.7 27 3 37.3
21:00 1014 29.94 844 24.92 22.8 73 27 3.1 37.7
21:05 1015 29.97 844 24.92 22.9 73.2 28 3.5 38.3
21:10 1015 29.97 844 24.92 22.9 73.1 28 3.6 38.5
21:15 1015 29.97 844 24.92 22.7 72.9 28 3.7 38.7
21:20 1015 29.97 844 24.92 22.7 72.8 29 3.9 39
21:25 1015 29.97 844 24.92 22.4 72.3 30 4.2 39.6
21:30 1015 29.97 844 24.92 22.1 71.9 31 4.3 39.8
21:35 1015 29.97 844 24.92 22 71.5 30 3.7 38.7
21:40 1015 29.97 844 24.92 22.3 72.2 29 3.7 38.7
21:45 1015 29.97 844 24.92 22.3 72.2 29 3.9 39
21:50 1015 29.97 844 24.92 22.3 72.1 30 4 39.2
21:55 1015 29.97 845 24.95 22.1 71.8 31 4.3 39.7
22:00 1015 29.97 845 24.95 21.6 70.8 33 4.7 40.5
22:05 1016 30 845 24.95 21.2 70.2 31 3.8 38.9
22:10 1016 30 845 24.95 21.5 70.6 31 3.8 38.8
22:15 1016 30 845 24.95 21.6 70.9 31 4 39.1
22:20 1016 30 845 24.95 21.5 70.7 32 4.3 39.8
22:25 1016 30 845 24.95 21.3 70.3 33 4.5 40
22:30 1016 30 845 24.95 21.1 69.9 33 4.3 39.8
22:35 1016 30 845 24.95 21 69.8 33 4.4 39.8
22:40 1016 30 845 24.95 20.9 69.6 34 4.5 40
22:45 1016 30 845 24.95 20.6 69.1 35 4.7 40.5
22:50 1016 30 845 24.95 20.1 68.1 36 4.9 40.7
22:55 1016 30 845 24.95 19.7 67.4 38 5.2 41.4
23:00 1016 30 845 24.95 19.3 66.8 39 5.1 41.2
23:05 1016 30 845 24.95 19.5 67.1 37 4.6 40.3
23:10 1016 30 845 24.95 19.7 67.5 36 4.6 40.3
23:15 1016 30 845 24.95 19.7 67.4 37 4.8 40.7
23:20 1016 30 845 24.95 19.4 66.9 37 4.5 40.2
23:25 1016 30 845 24.95 19.6 67.2 36 4.1 39.3
23:30 1016 30 845 24.95 19.9 67.9 34 3.7 38.6
23:35 1016 30 846 24.98 20.2 68.4 35 4.4 39.9
23:40 1016 30 846 24.98 19.9 67.8 36 4.4 39.9
23:45 1016 30 846 24.98 19.7 67.5 38 5.1 41.1
23:50 1016 30 846 24.98 18.9 66.1 41 5.5 41.9
23:55 1016 30 846 24.98 18.4 65.1 45 6.4 43.5
24:00 1017 30.03 846 24.98 17.9 64.2 48 6.7 44